sensor_id;sensor_type;location;lat;lon;timestamp;temperature;humidity
76838;DHT22;65797;47.352;8.164;2024-03-07T01:41:07;3.80;1.00
76838;DHT22;65797;47.352;8.164;2024-03-07T01:43:33;3.80;1.00
76838;DHT22;65797;47.352;8.164;2024-03-07T01:45:59;3.80;1.00
76838;DHT22;65797;47.352;8.164;2024-03-07T01:48:28;3.80;1.00
76838;DHT22;65797;47.352;8.164;2024-03-07T01:50:59;3.80;1.00
76838;DHT22;65797;47.352;8.164;2024-03-07T01:53:26;3.90;1.00
76838;DHT22;65797;47.352;8.164;2024-03-07T01:55:52;3.90;1.00
76838;DHT22;65797;47.352;8.164;2024-03-07T01:58:20;3.90;1.00
76838;DHT22;65797;47.352;8.164;2024-03-07T02:00:46;3.90;1.00
76838;DHT22;65797;47.352;8.164;2024-03-07T02:03:15;3.90;1.00
76838;DHT22;65797;47.352;8.164;2024-03-07T02:05:41;3.90;1.00
76838;DHT22;65797;47.352;8.164;2024-03-07T02:08:07;3.90;99.90
76838;DHT22;65797;47.352;8.164;2024-03-07T02:10:33;3.90;99.90
76838;DHT22;65797;47.352;8.164;2024-03-07T02:12:59;3.90;99.90
76838;DHT22;65797;47.352;8.164;2024-03-07T02:15:26;3.90;99.90
76838;DHT22;65797;47.352;8.164;2024-03-07T02:17:52;3.80;1.00
76838;DHT22;65797;47.352;8.164;2024-03-07T02:20:18;3.90;1.00
76838;DHT22;65797;47.352;8.164;2024-03-07T02:22:44;3.80;1.00
76838;DHT22;65797;47.352;8.164;2024-03-07T02:25:10;3.80;1.00
76838;DHT22;65797;47.352;8.164;2024-03-07T02:27:36;3.90;1.00
76838;DHT22;65797;47.352;8.164;2024-03-07T02:30:02;3.80;1.00
76838;DHT22;65797;47.352;8.164;2024-03-07T02:32:28;3.80;1.00
76838;DHT22;65797;47.352;8.164;2024-03-07T02:34:54;3.80;1.00
76838;DHT22;65797;47.352;8.164;2024-03-07T02:37:20;3.80;1.00
76838;DHT22;65797;47.352;8.164;2024-03-07T02:39:46;3.80;99.90
76838;DHT22;65797;47.352;8.164;2024-03-07T02:42:12;3.80;99.90
76838;DHT22;65797;47.352;8.164;2024-03-07T02:44:37;3.80;99.90
76838;DHT22;65797;47.352;8.164;2024-03-07T02:47:05;3.80;1.00
76838;DHT22;65797;47.352;8.164;2024-03-07T02:49:30;3.80;1.00
76838;DHT22;65797;47.352;8.164;2024-03-07T19:25:47;3.00;1.00
76838;DHT22;65797;47.352;8.164;2024-03-07T19:28:16;3.00;1.00
76838;DHT22;65797;47.352;8.164;2024-03-07T19:33:10;2.90;1.00
76838;DHT22;65797;47.352;8.164;2024-03-07T19:35:52;2.90;1.00
76838;DHT22;65797;47.352;8.164;2024-03-07T19:38:30;2.90;1.00
76838;DHT22;65797;47.352;8.164;2024-03-07T19:40:57;2.90;1.00
76838;DHT22;65797;47.352;8.164;2024-03-07T19:43:23;2.90;1.00
76838;DHT22;65797;47.352;8.164;2024-03-07T19:45:49;2.80;1.00
76838;DHT22;65797;47.352;8.164;2024-03-07T19:48:15;2.60;1.00
76838;DHT22;65797;47.352;8.164;2024-03-07T19:50:43;2.60;1.00
76838;DHT22;65797;47.352;8.164;2024-03-07T19:53:11;2.60;99.90
76838;DHT22;65797;47.352;8.164;2024-03-07T19:55:44;2.60;99.90
76838;DHT22;65797;47.352;8.164;2024-03-07T19:58:15;2.50;1.00
76838;DHT22;65797;47.352;8.164;2024-03-07T20:00:41;2.50;1.00
76838;DHT22;65797;47.352;8.164;2024-03-07T20:03:11;2.50;1.00
76838;DHT22;65797;47.352;8.164;2024-03-07T20:05:40;2.40;1.00
76838;DHT22;65797;47.352;8.164;2024-03-07T20:08:06;2.40;11.60
76838;DHT22;65797;47.352;8.164;2024-03-07T20:10:32;2.30;1.00
76838;DHT22;65797;47.352;8.164;2024-03-07T20:12:58;2.20;1.00
76838;DHT22;65797;47.352;8.164;2024-03-07T20:15:25;2.20;1.00
76838;DHT22;65797;47.352;8.164;2024-03-07T20:17:52;2.20;99.90
76838;DHT22;65797;47.352;8.164;2024-03-07T20:20:19;2.20;99.90
76838;DHT22;65797;47.352;8.164;2024-03-07T20:22:50;2.20;99.90
76838;DHT22;65797;47.352;8.164;2024-03-07T20:25:18;2.10;1.00
76838;DHT22;65797;47.352;8.164;2024-03-07T20:27:49;2.10;53.00
76838;DHT22;65797;47.352;8.164;2024-03-07T20:30:18;2.00;39.00
76838;DHT22;65797;47.352;8.164;2024-03-07T20:32:48;1.80;1.00
76838;DHT22;65797;47.352;8.164;2024-03-07T20:35:17;1.80;99.90
76838;DHT22;65797;47.352;8.164;2024-03-07T21:47:15;1.00;99.90
76838;DHT22;65797;47.352;8.164;2024-03-07T21:49:41;0.90;99.90
76838;DHT22;65797;47.352;8.164;2024-03-07T21:52:11;0.90;99.90
76838;DHT22;65797;47.352;8.164;2024-03-07T21:54:37;0.80;99.90
76838;DHT22;65797;47.352;8.164;2024-03-07T21:57:04;0.90;1.00
76838;DHT22;65797;47.352;8.164;2024-03-07T21:59:37;0.90;1.00
76838;DHT22;65797;47.352;8.164;2024-03-07T22:02:04;0.90;1.00
76838;DHT22;65797;47.352;8.164;2024-03-07T22:04:33;0.90;1.00
76838;DHT22;65797;47.352;8.164;2024-03-07T22:06:59;0.90;1.00
76838;DHT22;65797;47.352;8.164;2024-03-07T22:09:24;0.90;1.00
76838;DHT22;65797;47.352;8.164;2024-03-07T22:11:50;0.90;1.00
76838;DHT22;65797;47.352;8.164;2024-03-07T22:14:19;0.90;99.90
76838;DHT22;65797;47.352;8.164;2024-03-07T22:16:54;0.80;99.90
76838;DHT22;65797;47.352;8.164;2024-03-07T22:19:22;0.70;99.90
76838;DHT22;65797;47.352;8.164;2024-03-07T22:21:48;0.70;99.90
76838;DHT22;65797;47.352;8.164;2024-03-07T22:24:14;0.70;1.00
76838;DHT22;65797;47.352;8.164;2024-03-07T22:26:41;0.60;1.00
76838;DHT22;65797;47.352;8.164;2024-03-07T22:29:07;0.60;99.90
76838;DHT22;65797;47.352;8.164;2024-03-07T22:31:36;0.60;99.90
76838;DHT22;65797;47.352;8.164;2024-03-07T22:34:07;0.50;99.90
76838;DHT22;65797;47.352;8.164;2024-03-07T22:36:33;0.40;80.30
76838;DHT22;65797;47.352;8.164;2024-03-07T22:39:00;0.30;76.30
76838;DHT22;65797;47.352;8.164;2024-03-07T22:41:25;0.40;1.00
76838;DHT22;65797;47.352;8.164;2024-03-07T22:43:51;0.40;1.00
76838;DHT22;65797;47.352;8.164;2024-03-07T22:46:17;0.40;1.00
76838;DHT22;65797;47.352;8.164;2024-03-07T22:48:43;0.40;1.00
76838;DHT22;65797;47.352;8.164;2024-03-07T22:51:09;0.40;1.00
76838;DHT22;65797;47.352;8.164;2024-03-07T22:53:35;0.40;1.00
76838;DHT22;65797;47.352;8.164;2024-03-07T22:56:02;0.40;1.00
